Time;durP1;ratioP1;P1;durP2;ratioP2;P2;SDS_P1;SDS_P2;PMS_P1;PMS_P2;Temp;Humidity;BMP_temperature;BMP_pressure;BME280_temperature;BME280_humidity;BME280_pressure;Samples;Min_cycle;Max_cycle;Signal;HPM_P1;HPM_P2
2021/04/10 00:01:42;;;;;;;7.30;3.72;;;;;;;0.40;53.89;97852.95;1694420;85;21145;-77
2021/04/10 00:04:11;;;;;;;7.33;4.10;;;;;;;0.40;53.94;97851.65;1685845;85;21216;-77
2021/04/10 00:06:40;;;;;;;7.70;3.70;;;;;;;0.35;53.87;97847.02;1688322;85;21174;-76
2021/04/10 00:09:09;;;;;;;6.23;3.43;;;;;;;0.34;54.16;97850.06;1688403;85;21146;-77
2021/04/10 00:11:38;;;;;;;7.60;4.30;;;;;;;0.37;53.55;97849.13;1688545;85;21182;-75
2021/04/10 00:14:10;;;;;;;10.00;4.30;;;;;;;0.37;53.95;97849.13;1686182;85;21176;-77
2021/04/10 00:16:37;;;;;;;6.90;3.57;;;;;;;0.35;54.03;97847.02;1686324;85;21189;-75
2021/04/10 00:19:04;;;;;;;8.83;3.90;;;;;;;0.32;54.25;97841.47;1672565;85;21197;-77
2021/04/10 00:21:32;;;;;;;8.70;4.00;;;;;;;0.33;54.22;97844.91;1657006;87;21165;-77
2021/04/10 00:23:59;;;;;;;6.10;3.73;;;;;;;0.30;54.32;97843.25;1675745;85;21513;-77
2021/04/10 00:26:26;;;;;;;9.05;3.65;;;;;;;0.31;54.39;97841.06;1686336;85;21192;-77
2021/04/10 00:28:54;;;;;;;9.85;4.55;;;;;;;0.29;54.40;97837.66;1686274;85;21149;-76
2021/04/10 00:31:21;;;;;;;6.33;3.70;;;;;;;0.27;54.32;97833.81;1687124;85;21707;-77
2021/04/10 00:33:48;;;;;;;7.28;3.37;;;;;;;0.24;54.36;97844.26;1688148;85;21150;-78
2021/04/10 00:36:15;;;;;;;8.97;3.57;;;;;;;0.23;54.38;97834.77;1688206;85;21161;-77
2021/04/10 00:38:43;;;;;;;6.70;4.00;;;;;;;0.22;54.28;97834.83;1687154;85;21193;-77
2021/04/10 00:41:13;;;;;;;7.92;3.37;;;;;;;0.21;54.52;97833.12;1687707;85;21124;-77
2021/04/10 00:43:40;;;;;;;7.90;4.10;;;;;;;0.21;54.28;97830.10;1687059;85;21232;-77
2021/04/10 00:46:08;;;;;;;11.88;4.42;;;;;;;0.21;54.47;97827.50;1687764;85;21623;-77
2021/04/10 00:48:35;;;;;;;6.42;3.22;;;;;;;0.21;54.41;97829.23;1688414;85;21308;-77
2021/04/10 00:51:04;;;;;;;5.83;3.53;;;;;;;0.19;54.35;97828.41;1687960;84;21608;-76
2021/04/10 00:53:34;;;;;;;7.35;3.65;;;;;;;0.18;54.42;97826.28;1684342;85;21165;-77
2021/04/10 00:56:06;;;;;;;6.27;3.57;;;;;;;0.19;54.35;97823.23;1638216;86;21592;-76
2021/04/10 00:58:35;;;;;;;6.77;3.63;;;;;;;0.17;54.42;97823.73;1686430;85;21151;-77
2021/04/10 01:01:05;;;;;;;9.57;3.77;;;;;;;0.17;54.58;97824.58;1687108;85;21181;-75
2021/04/10 01:03:33;;;;;;;9.13;4.30;;;;;;;0.18;54.46;97823.69;1687195;85;21195;-77
2021/04/10 01:06:00;;;;;;;6.55;3.77;;;;;;;0.18;54.41;97823.69;1683772;84;21536;-77
2021/04/10 01:08:28;;;;;;;8.08;4.33;;;;;;;0.17;54.40;97823.28;1662010;85;21131;-77
2021/04/10 01:11:05;;;;;;;11.67;4.60;;;;;;;0.21;54.48;97827.94;1681822;85;21099;-78
2021/04/10 01:13:44;;;;;;;7.87;3.87;;;;;;;0.22;54.48;97830.94;1682065;82;21185;-76
2021/04/10 01:16:22;;;;;;;8.60;4.37;;;;;;;0.23;54.51;97831.34;1688052;85;21134;-76
2021/04/10 01:19:10;;;;;;;6.57;4.10;;;;;;;0.20;54.28;97832.28;1688069;84;21193;-76
2021/04/10 01:21:58;;;;;;;5.77;3.67;;;;;;;0.17;54.34;97827.17;1687744;85;21174;-77
2021/04/10 01:24:52;;;;;;;4.90;2.87;;;;;;;0.14;54.25;97825.52;1674532;85;21174;-75
2021/04/10 01:27:41;;;;;;;7.20;3.77;;;;;;;0.11;54.26;97828.18;1687815;85;21638;-76
2021/04/10 01:30:19;;;;;;;7.20;3.00;;;;;;;0.06;54.33;97817.09;1688347;85;21142;-76
2021/04/10 01:33:04;;;;;;;8.57;3.73;;;;;;;0.04;54.30;97818.03;1687868;85;21572;-78
2021/04/10 01:35:41;;;;;;;4.40;3.03;;;;;;;0.03;54.33;97817.16;1666370;85;21149;-77
2021/04/10 01:38:12;;;;;;;4.37;2.87;;;;;;;-0.06;54.17;97819.57;1666487;85;21152;-77
2021/04/10 01:40:42;;;;;;;5.37;3.10;;;;;;;-0.06;54.43;97820.00;1688214;85;21186;-76
2021/04/10 01:43:11;;;;;;;8.33;3.23;;;;;;;-0.05;54.47;97823.87;1688275;85;21209;-77
2021/04/10 01:45:43;;;;;;;3.22;2.33;;;;;;;-0.08;54.42;97816.16;1687484;85;21125;-76
2021/04/10 01:48:14;;;;;;;3.90;2.80;;;;;;;-0.07;54.70;97819.16;1686231;85;21161;-77
2021/04/10 01:50:43;;;;;;;5.60;3.10;;;;;;;-0.11;54.54;97817.98;1686018;85;21121;-77
2021/04/10 01:53:12;;;;;;;5.53;2.83;;;;;;;-0.16;54.46;97823.28;1686009;85;21136;-76
2021/04/10 01:55:41;;;;;;;5.73;2.97;;;;;;;-0.20;54.64;97816.47;1686144;85;21180;-76
2021/04/10 01:58:11;;;;;;;6.90;3.07;;;;;;;-0.17;54.66;97815.94;1685667;83;21140;-76
2021/04/10 02:00:41;;;;;;;4.43;2.47;;;;;;;-0.14;54.69;97821.94;1687081;85;21600;-77
2021/04/10 02:03:11;;;;;;;7.37;3.27;;;;;;;-0.13;54.68;97813.28;1687772;85;21604;-76
2021/04/10 02:05:40;;;;;;;6.27;3.90;;;;;;;-0.13;54.76;97818.46;1688300;85;21146;-76
2021/04/10 02:08:25;;;;;;;6.03;3.80;;;;;;;-0.10;55.56;97814.05;1821095;79;22966;-76
2021/04/10 02:10:54;;;;;;;6.20;3.80;;;;;;;-0.19;54.96;97813.86;1769252;78;21167;-77
2021/04/10 02:13:24;;;;;;;6.13;3.10;;;;;;;-0.21;54.83;97815.63;1807865;78;21119;-77
2021/04/10 02:15:52;;;;;;;8.87;4.00;;;;;;;-0.25;54.74;97813.16;1745501;81;21146;-76
2021/04/10 02:18:22;;;;;;;8.63;3.10;;;;;;;-0.28;54.85;97814.52;1721539;83;21633;-77
2021/04/10 02:20:50;;;;;;;6.33;3.53;;;;;;;-0.28;55.00;97814.52;1759561;81;21333;-77
2021/04/10 02:23:19;;;;;;;6.07;3.30;;;;;;;-0.30;55.00;97818.45;1759517;81;21126;-77
2021/04/10 02:25:48;;;;;;;6.37;3.17;;;;;;;-0.29;55.12;97814.11;1758076;81;21623;-76
2021/04/10 02:28:16;;;;;;;4.90;3.20;;;;;;;-0.29;55.17;97815.40;1759337;81;21137;-77
2021/04/10 02:30:44;;;;;;;4.67;3.00;;;;;;;-0.30;55.37;97813.69;1745551;81;21148;-75
2021/04/10 02:33:20;;;;;;;5.70;3.37;;;;;;;-0.32;55.50;97813.74;1721306;81;21313;-76
2021/04/10 02:35:56;;;;;;;6.53;2.98;;;;;;;-0.30;55.39;97809.81;1722282;81;21193;-76
2021/04/10 02:38:26;;;;;;;3.90;2.40;;;;;;;-0.34;55.33;97807.31;1707942;84;21618;-77
2021/04/10 02:41:06;;;;;;;4.97;3.00;;;;;;;-0.36;55.38;97810.38;1708105;84;21148;-76
2021/04/10 02:43:37;;;;;;;5.50;2.63;;;;;;;-0.36;55.38;97805.20;1708126;84;21161;-77
2021/04/10 02:46:08;;;;;;;5.70;3.40;;;;;;;-0.38;55.60;97800.95;1708846;83;21183;-77
2021/04/10 02:49:00;;;;;;;5.60;2.90;;;;;;;-0.43;55.80;97804.95;1678160;84;21587;-77
2021/04/10 02:51:42;;;;;;;4.23;2.87;;;;;;;-0.43;55.73;97807.55;1678134;84;21156;-76
2021/04/10 02:54:21;;;;;;;7.63;2.83;;;;;;;-0.44;55.66;97810.15;1708020;83;21148;-76
2021/04/10 02:57:11;;;;;;;4.43;3.17;;;;;;;-0.48;55.65;97803.77;1708345;84;21152;-77
2021/04/10 02:59:44;;;;;;;6.07;3.67;;;;;;;-0.49;55.90;97802.49;1708731;83;21172;-76
2021/04/10 03:02:15;;;;;;;4.90;2.80;;;;;;;-0.52;55.75;97799.54;1709333;82;21140;-76
2021/04/10 03:04:46;;;;;;;4.03;2.83;;;;;;;-0.55;55.59;97800.06;1711600;82;21168;-77
2021/04/10 03:07:16;;;;;;;9.70;2.50;;;;;;;-0.53;55.73;97804.77;1701685;83;21243;-77
2021/04/10 03:09:47;;;;;;;3.77;2.27;;;;;;;-0.53;55.63;97800.88;1723884;83;21167;-75
2021/04/10 03:12:19;;;;;;;6.80;3.20;;;;;;;-0.53;55.84;97808.20;1745801;82;21143;-75
2021/04/10 03:14:48;;;;;;;4.50;3.13;;;;;;;-0.51;55.80;97810.31;1724601;82;21165;-76
2021/04/10 03:17:21;;;;;;;8.03;3.43;;;;;;;-0.50;55.82;97811.15;1725864;82;21150;-77
2021/04/10 03:19:50;;;;;;;6.50;3.50;;;;;;;-0.54;55.82;97809.08;1743635;82;21279;-75
2021/04/10 03:22:18;;;;;;;9.60;4.27;;;;;;;-0.57;56.42;97807.88;1719350;82;21626;-76
2021/04/10 03:24:47;;;;;;;7.17;4.17;;;;;;;-0.58;56.08;97806.17;1704923;83;21148;-76
2021/04/10 03:27:15;;;;;;;7.73;4.20;;;;;;;-0.55;56.08;97812.55;1723980;82;21294;-77
2021/04/10 03:29:43;;;;;;;8.20;4.30;;;;;;;-0.55;56.06;97813.84;1750358;82;21152;-75
2021/04/10 03:32:13;;;;;;;16.20;5.43;;;;;;;-0.55;56.45;97816.90;1752111;82;21149;-76
2021/04/10 03:34:42;;;;;;;8.10;5.10;;;;;;;-0.57;56.28;97818.66;1753427;81;21575;-75
2021/04/10 03:37:11;;;;;;;8.83;5.00;;;;;;;-0.60;56.30;97817.01;1748512;81;21132;-76
2021/04/10 03:39:39;;;;;;;8.53;5.30;;;;;;;-0.59;57.37;97826.91;1723492;82;21136;-76
2021/04/10 03:42:09;;;;;;;13.30;5.37;;;;;;;-0.60;56.42;97818.77;1705409;82;21148;-77
2021/04/10 03:44:36;;;;;;;11.00;5.43;;;;;;;-0.61;56.37;97824.83;1753070;81;21125;-76
2021/04/10 03:47:06;;;;;;;9.23;4.90;;;;;;;-0.68;56.33;97821.06;1726312;81;22263;-76
2021/04/10 03:49:34;;;;;;;8.90;4.20;;;;;;;-0.69;56.29;97822.41;1752215;82;21145;-76
2021/04/10 03:52:02;;;;;;;9.63;4.60;;;;;;;-0.72;56.06;97826.34;1753194;81;21105;-75
2021/04/10 03:54:30;;;;;;;8.27;4.20;;;;;;;-0.74;57.13;97825.56;1752440;81;21658;-77
2021/04/10 03:56:57;;;;;;;6.70;3.97;;;;;;;-0.69;56.80;97822.41;1747198;81;21145;-76
2021/04/10 03:59:27;;;;;;;10.20;4.90;;;;;;;-0.68;56.78;97822.36;1753160;81;21125;-76
2021/04/10 04:01:57;;;;;;;10.43;4.50;;;;;;;-0.61;56.82;97831.30;1752597;81;21141;-75
2021/04/10 04:04:27;;;;;;;8.03;4.80;;;;;;;-0.56;56.85;97827.72;1734961;82;21739;-78
2021/04/10 04:06:54;;;;;;;11.53;4.50;;;;;;;-0.49;56.90;97830.98;1727765;82;21152;-76
2021/04/10 04:09:23;;;;;;;10.03;5.30;;;;;;;-0.48;56.47;97826.22;1750570;82;21259;-76
2021/04/10 04:11:52;;;;;;;8.90;5.60;;;;;;;-0.42;56.76;97829.97;1686433;85;21171;-77
2021/04/10 04:14:21;;;;;;;10.30;5.17;;;;;;;-0.34;56.79;97829.77;1689545;85;21594;-76
2021/04/10 04:16:49;;;;;;;9.80;5.07;;;;;;;-0.28;56.29;97833.52;1690416;83;21132;-76
2021/04/10 04:19:16;;;;;;;8.70;5.03;;;;;;;-0.25;56.36;97833.42;1750409;80;21129;-76
2021/04/10 04:21:44;;;;;;;12.40;5.03;;;;;;;-0.24;56.35;97833.83;1750473;81;21150;-76
2021/04/10 04:24:11;;;;;;;12.80;4.05;;;;;;;-0.19;56.50;97835.02;1759132;80;21281;-76
2021/04/10 04:26:39;;;;;;;8.13;4.60;;;;;;;-0.10;56.53;97836.53;1781525;80;21583;-76
2021/04/10 04:29:06;;;;;;;7.37;3.90;;;;;;;-0.02;56.38;97840.62;1777494;80;21282;-77
2021/04/10 04:31:34;;;;;;;6.87;4.13;;;;;;;0.06;56.24;97843.45;1750676;81;21148;-76
2021/04/10 04:34:01;;;;;;;9.63;4.47;;;;;;;0.13;55.98;97838.53;1750616;81;21258;-77
2021/04/10 04:36:28;;;;;;;7.30;4.70;;;;;;;0.19;55.98;97837.06;1750883;82;21151;-77
2021/04/10 04:38:57;;;;;;;9.40;4.37;;;;;;;0.26;55.66;97835.16;1686678;84;21141;-77
2021/04/10 04:41:24;;;;;;;10.13;5.67;;;;;;;0.34;55.59;97840.12;1750695;80;21124;-78
2021/04/10 04:43:51;;;;;;;11.57;6.03;;;;;;;0.45;55.49;97848.04;1773698;80;21132;-79
2021/04/10 04:46:18;;;;;;;12.37;6.57;;;;;;;0.67;55.41;97847.88;1781683;80;21571;-77
2021/04/10 04:48:45;;;;;;;10.10;6.30;;;;;;;1.13;55.44;97850.43;1781783;80;21132;-77
2021/04/10 04:51:13;;;;;;;9.50;6.12;;;;;;;1.72;55.47;97849.88;1781467;80;21125;-77
2021/04/10 04:53:40;;;;;;;15.83;6.45;;;;;;;2.34;54.53;97844.77;1781383;80;21125;-76
2021/04/10 04:56:07;;;;;;;9.25;6.25;;;;;;;2.95;53.43;97850.41;1705906;83;21156;-77
2021/04/10 04:58:34;;;;;;;10.85;6.12;;;;;;;3.57;52.46;97851.97;1715195;84;21566;-78
2021/04/10 05:01:01;;;;;;;17.07;6.53;;;;;;;4.20;51.06;97851.97;1718211;83;21160;-76
2021/04/10 05:03:29;;;;;;;12.37;6.42;;;;;;;4.83;50.18;97856.68;1712333;83;21152;-76
2021/04/10 05:05:56;;;;;;;11.55;6.10;;;;;;;5.44;48.38;97849.08;1712212;83;21108;-77
2021/04/10 05:08:23;;;;;;;10.90;5.90;;;;;;;5.94;48.61;97844.93;1695026;83;21595;-76
2021/04/10 05:10:50;;;;;;;11.93;6.92;;;;;;;6.33;48.59;97836.48;1676717;85;21583;-78
2021/04/10 05:13:18;;;;;;;11.43;6.42;;;;;;;6.87;46.61;97840.23;1698215;84;21140;-77
2021/04/10 05:15:45;;;;;;;12.68;6.42;;;;;;;7.26;45.73;97834.69;1686071;85;21161;-78
2021/04/10 05:18:12;;;;;;;9.08;6.35;;;;;;;7.47;46.73;97838.72;1687337;85;21761;-78
2021/04/10 05:20:40;;;;;;;14.15;9.88;;;;;;;7.69;45.50;97832.75;1747688;82;21555;-77
2021/04/10 05:23:07;;;;;;;11.15;5.30;;;;;;;7.98;45.06;97835.02;1737468;82;21561;-77
2021/04/10 05:25:34;;;;;;;23.95;10.03;;;;;;;7.96;44.80;97840.81;1738809;82;21127;-76
2021/04/10 05:28:02;;;;;;;16.40;7.25;;;;;;;8.02;43.76;97840.92;1719386;82;21601;-76
2021/04/10 05:30:29;;;;;;;17.90;9.78;;;;;;;8.02;43.76;97840.92;1714065;82;21148;-76
2021/04/10 05:32:58;;;;;;;17.70;7.08;;;;;;;8.23;44.13;97829.17;1747801;82;21136;-76
2021/04/10 05:35:26;;;;;;;11.08;5.90;;;;;;;7.68;41.34;97827.95;1747611;82;21562;-76
2021/04/10 05:37:53;;;;;;;14.45;7.00;;;;;;;7.68;41.34;97904.05;1736766;82;21132;-75
2021/04/10 05:40:20;;;;;;;20.72;8.13;;;;;;;7.25;41.75;97832.99;1712446;83;21173;-75
2021/04/10 05:42:47;;;;;;;14.45;8.75;;;;;;;6.82;42.80;97836.98;1722750;82;21541;-76
2021/04/10 05:45:15;;;;;;;17.48;10.15;;;;;;;6.82;42.80;97836.98;1748151;82;21124;-76
2021/04/10 05:47:42;;;;;;;15.70;10.00;;;;;;;7.14;43.21;97839.66;1733983;82;21164;-76
2021/04/10 05:50:11;;;;;;;14.65;8.70;;;;;;;7.25;42.26;97840.86;1723008;83;21109;-78
2021/04/10 05:52:39;;;;;;;14.25;7.28;;;;;;;7.22;42.37;97838.39;1723294;82;21255;-77
2021/04/10 05:55:09;;;;;;;20.57;10.63;;;;;;;6.95;41.42;97829.80;1723540;83;21156;-77
2021/04/10 05:57:36;;;;;;;23.02;12.73;;;;;;;6.77;42.11;97844.74;1719424;82;21169;-77
2021/04/10 06:00:05;;;;;;;20.82;11.00;;;;;;;6.80;42.81;97839.31;1723425;82;21570;-75
2021/04/10 06:02:35;;;;;;;21.85;12.35;;;;;;;6.91;42.04;97838.28;1711885;84;21144;-75
2021/04/10 06:05:03;;;;;;;26.33;16.50;;;;;;;6.82;43.11;97846.16;1747999;82;21157;-76
2021/04/10 06:07:31;;;;;;;21.27;12.47;;;;;;;7.05;42.40;97835.40;1748048;82;21192;-75
2021/04/10 06:09:58;;;;;;;27.05;18.40;;;;;;;7.05;42.40;97835.40;1738214;81;21113;-74
2021/04/10 06:12:26;;;;;;;29.42;18.70;;;;;;;6.85;42.54;97841.25;1749747;82;21137;-75
2021/04/10 06:14:53;;;;;;;26.62;15.35;;;;;;;7.27;43.03;97839.00;1752033;81;21137;-75
2021/04/10 06:17:20;;;;;;;24.80;14.43;;;;;;;7.76;42.30;97848.53;1755765;81;21153;-75
2021/04/10 06:19:47;;;;;;;26.77;16.23;;;;;;;8.03;41.10;97847.39;1738325;82;21177;-75
2021/04/10 06:22:16;;;;;;;22.77;15.30;;;;;;;8.11;40.62;97839.08;1748956;81;21101;-76
2021/04/10 06:24:43;;;;;;;24.15;17.10;;;;;;;8.36;40.62;97845.50;1741215;81;21566;-76
2021/04/10 06:27:11;;;;;;;16.85;8.33;;;;;;;8.37;39.70;97840.62;1738529;82;21177;-76
2021/04/10 06:29:38;;;;;;;24.02;13.90;;;;;;;8.44;39.66;97844.13;1663247;86;21117;-76
2021/04/10 06:32:07;;;;;;;15.20;10.10;;;;;;;8.29;38.35;97836.68;1662917;86;21192;-76
2021/04/10 06:34:34;;;;;;;22.70;13.85;;;;;;;8.46;39.73;97845.81;1663156;86;21177;-77
2021/04/10 06:37:02;;;;;;;19.25;12.63;;;;;;;8.40;39.66;97839.98;1662982;86;21659;-76
2021/04/10 06:39:29;;;;;;;20.45;11.90;;;;;;;8.63;39.35;97833.02;1738377;81;21101;-76
2021/04/10 06:41:56;;;;;;;16.40;10.05;;;;;;;8.94;38.08;97831.13;1738104;82;21169;-78
2021/04/10 06:44:24;;;;;;;16.87;12.13;;;;;;;8.95;38.13;97832.81;1758627;81;21559;-77
2021/04/10 06:46:54;;;;;;;14.47;8.63;;;;;;;9.09;38.52;97835.45;1764046;81;21132;-77
2021/04/10 06:49:23;;;;;;;23.02;10.40;;;;;;;9.29;37.50;97836.81;1665634;85;21140;-77
2021/04/10 06:51:53;;;;;;;14.33;9.83;;;;;;;9.40;36.24;97835.29;1768399;81;21618;-76
2021/04/10 06:54:22;;;;;;;21.23;12.20;;;;;;;9.55;36.85;97837.41;1690533;84;21141;-79
2021/04/10 06:56:57;;;;;;;19.10;12.18;;;;;;;9.55;36.83;97835.61;1768445;81;21150;-77
2021/04/10 06:59:52;;;;;;;22.65;12.78;;;;;;;9.76;35.93;97836.49;1767642;81;21141;-75
2021/04/10 07:02:20;;;;;;;15.13;12.05;;;;;;;9.59;36.88;97838.44;1667109;84;21160;-75
2021/04/10 07:04:47;;;;;;;29.12;14.38;;;;;;;9.77;35.66;97846.08;1739401;81;21579;-74
2021/04/10 07:07:14;;;;;;;21.33;12.18;;;;;;;9.55;35.63;97848.77;1752233;81;21215;-75
2021/04/10 07:09:42;;;;;;;16.35;11.63;;;;;;;9.40;34.77;97842.70;1755837;81;21144;-76
2021/04/10 07:12:10;;;;;;;16.17;10.32;;;;;;;9.49;35.65;97843.42;1755506;82;21638;-75
2021/04/10 07:14:38;;;;;;;25.20;12.45;;;;;;;9.31;35.68;97842.83;1756359;80;21110;-74
2021/04/10 07:17:06;;;;;;;16.67;11.43;;;;;;;9.08;35.45;97835.07;1755685;82;21144;-75
2021/04/10 07:19:33;;;;;;;19.95;9.80;;;;;;;8.97;35.83;97840.14;1755668;82;21098;-78
2021/04/10 07:22:14;;;;;;;20.70;12.13;;;;;;;8.71;36.20;97835.54;1755687;81;21149;-74
2021/04/10 07:24:47;;;;;;;14.90;9.13;;;;;;;8.75;36.45;97846.26;1755503;82;21170;-76
2021/04/10 07:27:22;;;;;;;19.20;11.93;;;;;;;8.76;36.12;97835.26;1755735;81;21605;-75
2021/04/10 07:29:54;;;;;;;10.13;6.20;;;;;;;8.78;36.48;97848.30;1759736;80;21133;-74
2021/04/10 07:32:38;;;;;;;15.15;10.90;;;;;;;8.81;35.80;97838.47;1758341;80;21172;-76
2021/04/10 07:35:11;;;;;;;15.80;7.58;;;;;;;8.61;36.19;97835.72;1773225;80;21539;-76
2021/04/10 07:37:42;;;;;;;15.78;11.40;;;;;;;8.66;36.28;97844.19;1755951;82;21168;-77
2021/04/10 07:40:19;;;;;;;26.73;14.78;;;;;;;8.58;36.91;97831.98;1757048;80;21173;-76
2021/04/10 07:42:47;;;;;;;18.73;12.23;;;;;;;8.75;37.28;97836.20;1755438;82;21511;-76
2021/04/10 07:45:34;;;;;;;17.92;11.40;;;;;;;9.15;37.30;97833.73;1755853;81;21105;-76
2021/04/10 07:48:10;;;;;;;20.35;13.80;;;;;;;9.47;37.10;97836.58;1756025;82;21314;-77
2021/04/10 07:50:38;;;;;;;23.85;13.93;;;;;;;9.64;37.01;97828.92;1755779;82;21168;-77
2021/04/10 07:53:25;;;;;;;24.60;14.60;;;;;;;9.47;36.95;97827.38;1755577;82;21144;-75
2021/04/10 07:55:58;;;;;;;18.92;13.05;;;;;;;9.38;37.66;97836.23;1755738;82;21179;-76
2021/04/10 07:58:31;;;;;;;12.07;6.85;;;;;;;9.56;37.58;97829.41;1755817;80;21140;-74
2021/04/10 08:01:01;;;;;;;20.75;13.40;;;;;;;9.65;37.52;97831.94;1749006;82;21590;-76
2021/04/10 08:03:34;;;;;;;20.62;14.30;;;;;;;9.57;37.71;97833.73;1697117;83;21125;-75
2021/04/10 08:06:10;;;;;;;20.15;11.68;;;;;;;9.33;38.25;97830.39;1704569;83;21215;-75
2021/04/10 08:09:00;;;;;;;16.10;9.90;;;;;;;9.33;38.84;97838.77;1718098;83;21583;-77
2021/04/10 08:11:42;;;;;;;16.20;11.70;;;;;;;9.44;38.81;97839.40;1750058;82;21210;-76
2021/04/10 08:14:12;;;;;;;19.87;11.93;;;;;;;9.47;39.11;97837.89;1750137;80;21165;-75
2021/04/10 08:16:44;;;;;;;16.30;10.82;;;;;;;9.61;39.16;97831.26;1749978;81;21152;-75
2021/04/10 08:19:14;;;;;;;17.05;12.65;;;;;;;9.88;38.65;97828.25;1687123;83;21153;-75
2021/04/10 08:21:51;;;;;;;21.30;13.55;;;;;;;9.94;38.42;97826.52;1765651;81;21157;-76
2021/04/10 08:24:29;;;;;;;12.25;8.15;;;;;;;10.08;38.73;97822.52;1765524;81;21106;-77
2021/04/10 08:27:04;;;;;;;18.15;12.37;;;;;;;10.36;38.01;97821.97;1752559;80;21168;-78
2021/04/10 08:29:32;;;;;;;9.18;6.47;;;;;;;10.38;37.90;97816.16;1749971;82;21136;-76
2021/04/10 08:32:01;;;;;;;19.25;11.80;;;;;;;10.42;37.51;97816.80;1750081;80;21121;-76
2021/04/10 08:34:31;;;;;;;10.20;7.50;;;;;;;10.45;37.81;97816.56;1753182;80;21128;-77
2021/04/10 08:37:02;;;;;;;10.70;7.00;;;;;;;10.60;37.63;97820.81;1731307;82;21185;-77
2021/04/10 08:39:37;;;;;;;15.90;9.28;;;;;;;10.66;37.32;97814.73;1750335;80;21298;-74
2021/04/10 08:42:06;;;;;;;18.05;8.20;;;;;;;10.68;37.23;97813.66;1780970;80;21125;-76
2021/04/10 08:44:35;;;;;;;15.38;8.88;;;;;;;11.00;37.46;97803.98;1774134;80;21144;-78
2021/04/10 08:47:04;;;;;;;13.15;7.83;;;;;;;11.25;36.55;97804.41;1685743;84;21485;-75
2021/04/10 08:49:40;;;;;;;11.08;6.50;;;;;;;11.55;36.02;97794.36;1706428;83;21176;-77
2021/04/10 08:52:12;;;;;;;11.15;7.25;;;;;;;11.66;34.46;97794.42;1700854;83;21146;-76
2021/04/10 08:54:42;;;;;;;9.48;6.20;;;;;;;11.62;35.36;97800.88;1750056;81;21133;-76
2021/04/10 08:59:53;;;;;;;9.50;4.55;;;;;;;11.87;34.37;97791.98;1824157;77;23303;-76
2021/04/10 09:02:23;;;;;;;12.47;7.30;;;;;;;11.96;34.08;97784.33;1796064;80;21100;-76
2021/04/10 09:05:07;;;;;;;11.15;7.20;;;;;;;11.81;34.45;97791.13;1795794;79;21155;-76
2021/04/10 09:07:52;;;;;;;11.75;5.90;;;;;;;11.93;34.09;97792.47;1819313;78;21134;-76
2021/04/10 09:10:31;;;;;;;8.98;5.42;;;;;;;11.96;33.74;97802.36;1828221;78;21686;-77
2021/04/10 09:13:20;;;;;;;10.93;7.42;;;;;;;11.90;33.80;97786.11;1784780;80;21096;-76
2021/04/10 09:15:47;;;;;;;9.53;6.60;;;;;;;11.81;33.97;97788.48;1739975;82;21176;-76
2021/04/10 09:18:15;;;;;;;9.40;6.12;;;;;;;11.83;34.10;97773.34;1739916;82;21165;-76
2021/04/10 09:20:48;;;;;;;11.70;6.87;;;;;;;11.88;33.10;97775.18;1746061;81;21615;-76
2021/04/10 09:23:26;;;;;;;14.78;5.33;;;;;;;11.91;33.44;97773.27;1767844;81;21147;-77
2021/04/10 09:26:16;;;;;;;13.35;8.65;;;;;;;11.95;33.27;97764.14;1757201;81;21119;-75
2021/04/10 09:29:14;;;;;;;10.35;5.95;;;;;;;11.94;33.79;97765.95;1769640;81;21309;-76
2021/04/10 09:31:51;;;;;;;17.75;7.72;;;;;;;11.94;33.21;97765.95;1746071;81;21278;-73
2021/04/10 09:34:53;;;;;;;14.93;6.62;;;;;;;11.96;33.24;97768.47;1764520;81;21130;-76
2021/04/10 09:37:26;;;;;;;13.93;7.67;;;;;;;12.01;33.19;97760.59;1719763;82;21219;-76
2021/04/10 09:45:18;;;;;;;9.93;5.50;;;;;;;12.27;31.71;97746.36;1810757;78;21554;-76
2021/04/10 09:48:00;;;;;;;10.75;6.30;;;;;;;12.36;31.40;97771.23;1800164;77;21218;-76
2021/04/10 09:50:52;;;;;;;9.58;5.08;;;;;;;12.27;31.61;97745.04;1818479;78;21101;-81
2021/04/10 09:53:26;;;;;;;8.08;5.05;;;;;;;12.36;31.54;97748.30;1756355;80;21104;-75
2021/04/10 09:55:59;;;;;;;9.78;5.03;;;;;;;12.38;31.38;97741.56;1742756;80;21145;-76
2021/04/10 09:58:42;;;;;;;12.55;7.47;;;;;;;12.30;30.33;97750.07;1753645;80;21122;-76
2021/04/10 10:01:14;;;;;;;15.53;6.25;;;;;;;12.24;31.11;97731.59;1743380;80;21108;-76
2021/04/10 10:03:42;;;;;;;7.03;4.70;;;;;;;12.32;30.38;97744.19;1745571;81;21107;-73
2021/04/10 10:06:22;;;;;;;11.93;5.92;;;;;;;12.41;30.12;97730.27;1765156;81;21695;-81
2021/04/10 10:08:50;;;;;;;12.00;7.10;;;;;;;12.46;30.34;97720.65;1768303;80;21265;-76
2021/04/10 10:11:18;;;;;;;8.55;5.42;;;;;;;12.51;29.09;97729.08;1742667;81;21352;-78
2021/04/10 10:13:47;;;;;;;10.48;6.45;;;;;;;12.62;30.55;97719.80;1754067;81;21695;-76
2021/04/10 10:16:30;;;;;;;7.05;4.33;;;;;;;12.72;29.85;97713.31;1745701;80;21130;-74
2021/04/10 10:18:59;;;;;;;11.45;7.35;;;;;;;12.84;29.73;97717.28;1758904;80;21130;-79
2021/04/10 10:21:26;;;;;;;11.78;6.60;;;;;;;12.91;29.22;97718.47;1740281;81;21522;-77
2021/04/10 10:23:57;;;;;;;13.22;6.33;;;;;;;12.90;29.36;97715.45;1798425;80;21152;-76
2021/04/10 10:26:29;;;;;;;13.80;6.58;;;;;;;12.95;29.41;97714.59;1800313;80;21168;-76
2021/04/10 10:29:05;;;;;;;11.43;7.25;;;;;;;13.06;29.11;97708.45;1740032;82;21124;-77
2021/04/10 10:31:44;;;;;;;12.47;6.92;;;;;;;13.09;29.14;97709.05;1740037;82;21132;-76
2021/04/10 10:34:20;;;;;;;11.75;6.70;;;;;;;13.13;28.92;97703.02;1746160;80;21147;-75
2021/04/10 10:36:49;;;;;;;10.75;6.97;;;;;;;13.18;28.18;97699.50;1738748;81;21199;-77
2021/04/10 10:39:35;;;;;;;5.28;3.92;;;;;;;13.16;28.10;97708.54;1740066;81;21171;-76
2021/04/10 10:42:07;;;;;;;9.23;5.43;;;;;;;13.27;28.93;97700.08;1748117;82;21184;-75
2021/04/10 10:44:36;;;;;;;12.63;6.97;;;;;;;13.36;29.33;97702.47;1747825;82;21535;-77
2021/04/10 10:47:07;;;;;;;12.03;7.33;;;;;;;13.39;28.87;97698.28;1788876;79;21159;-75
2021/04/10 10:49:35;;;;;;;10.58;5.72;;;;;;;13.41;29.11;97700.30;1789591;79;22117;-74
2021/04/10 10:52:03;;;;;;;7.65;4.37;;;;;;;13.45;29.08;97687.67;1796678;79;21156;-76
2021/04/10 10:54:36;;;;;;;5.72;4.47;;;;;;;13.48;28.94;97683.42;1786421;80;21124;-76
2021/04/10 10:57:13;;;;;;;17.62;6.90;;;;;;;13.55;28.76;97681.11;1794337;79;21124;-75
2021/04/10 10:59:42;;;;;;;10.72;5.20;;;;;;;13.56;29.09;97686.27;1726900;82;21167;-76
2021/04/10 11:02:18;;;;;;;8.98;6.95;;;;;;;13.66;28.83;97674.44;1743857;82;21136;-79
2021/04/10 11:04:47;;;;;;;10.72;6.28;;;;;;;13.78;29.06;97678.36;1747384;82;21141;-79
2021/04/10 11:07:19;;;;;;;16.37;7.62;;;;;;;13.90;28.79;97681.28;1733160;82;21144;-76
2021/04/10 11:09:49;;;;;;;6.37;4.30;;;;;;;13.86;28.81;97671.42;1756772;81;21585;-81
2021/04/10 11:12:16;;;;;;;9.38;5.95;;;;;;;13.88;27.54;97671.28;1785699;79;21172;-77
2021/04/10 11:14:47;;;;;;;11.88;6.35;;;;;;;13.75;27.38;97664.86;1787232;79;21144;-77
2021/04/10 11:17:29;;;;;;;12.50;5.90;;;;;;;13.78;27.89;97661.97;1784814;80;21124;-77
2021/04/10 11:19:59;;;;;;;8.25;5.03;;;;;;;13.85;28.51;97656.50;1785031;80;21659;-79
2021/04/10 11:22:26;;;;;;;11.15;6.00;;;;;;;13.86;27.52;97654.70;1747733;82;21151;-77
2021/04/10 11:25:00;;;;;;;8.98;5.53;;;;;;;13.83;27.88;97658.92;1784258;80;21147;-77
2021/04/10 11:27:34;;;;;;;10.35;4.53;;;;;;;13.76;27.76;97660.42;1785019;80;21183;-78
2021/04/10 11:30:10;;;;;;;8.10;5.28;;;;;;;13.72;28.00;97650.08;1785075;80;21147;-76
2021/04/10 11:32:44;;;;;;;8.15;5.47;;;;;;;13.74;28.06;97652.11;1747718;82;21165;-76
2021/04/10 11:35:20;;;;;;;7.03;4.67;;;;;;;13.73;27.81;97654.41;1784900;80;21611;-77
2021/04/10 11:37:56;;;;;;;7.25;4.42;;;;;;;13.73;27.81;97643.81;1784907;80;21108;-76
2021/04/10 11:40:30;;;;;;;7.67;5.00;;;;;;;13.77;27.80;97647.53;1785086;80;21128;-76
2021/04/10 11:43:04;;;;;;;9.03;4.50;;;;;;;13.71;27.77;97636.47;1789974;80;21178;-78
2021/04/10 11:45:46;;;;;;;10.70;6.30;;;;;;;13.74;27.98;97638.87;1753584;81;21155;-77
2021/04/10 11:48:20;;;;;;;9.80;5.60;;;;;;;13.86;28.21;97637.48;1737769;82;21172;-76
2021/04/10 11:51:00;;;;;;;11.30;6.03;;;;;;;14.00;28.03;97639.77;1737593;82;21642;-76
2021/04/10 11:53:37;;;;;;;8.20;5.05;;;;;;;14.03;28.28;97632.89;1737662;82;21163;-77
2021/04/10 11:59:08;;;;;;;7.75;4.60;;;;;;;14.15;27.38;97623.54;1780410;79;23478;-78
2021/04/10 12:01:42;;;;;;;5.65;3.37;;;;;;;14.16;27.86;97620.74;1753549;81;21113;-76
2021/04/10 12:04:11;;;;;;;7.72;5.35;;;;;;;14.17;27.18;97622.89;1749917;82;21136;-77